sensor_id;sensor_type;location;lat;lon;timestamp;P1;durP1;ratioP1;P2;durP2;ratioP2
18249;SDS011;27980;52.126;5.572;2023-08-30T00:00:23;7.28;;;5.57;;
18249;SDS011;27980;52.126;5.572;2023-08-30T00:02:50;6.97;;;4.47;;
18249;SDS011;27980;52.126;5.572;2023-08-30T00:05:18;5.70;;;4.57;;
18249;SDS011;27980;52.126;5.572;2023-08-30T00:07:45;6.38;;;4.93;;
18249;SDS011;27980;52.126;5.572;2023-08-30T00:10:11;5.70;;;4.90;;
18249;SDS011;27980;52.126;5.572;2023-08-30T00:12:39;8.52;;;5.35;;
18249;SDS011;27980;52.126;5.572;2023-08-30T00:15:06;7.40;;;5.07;;
18249;SDS011;27980;52.126;5.572;2023-08-30T00:17:33;6.22;;;4.07;;
18249;SDS011;27980;52.126;5.572;2023-08-30T00:19:59;8.57;;;5.53;;
18249;SDS011;27980;52.126;5.572;2023-08-30T00:22:25;6.07;;;4.97;;
18249;SDS011;27980;52.126;5.572;2023-08-30T00:24:52;6.80;;;5.07;;
18249;SDS011;27980;52.126;5.572;2023-08-30T00:27:19;7.68;;;5.38;;
18249;SDS011;27980;52.126;5.572;2023-08-30T00:29:48;6.38;;;4.65;;
18249;SDS011;27980;52.126;5.572;2023-08-30T00:32:14;6.45;;;4.88;;
18249;SDS011;27980;52.126;5.572;2023-08-30T00:34:41;6.95;;;4.43;;
18249;SDS011;27980;52.126;5.572;2023-08-30T00:37:08;6.75;;;5.10;;
18249;SDS011;27980;52.126;5.572;2023-08-30T00:39:37;8.40;;;6.07;;
18249;SDS011;27980;52.126;5.572;2023-08-30T00:42:04;7.25;;;5.00;;
18249;SDS011;27980;52.126;5.572;2023-08-30T00:44:32;5.75;;;5.03;;
18249;SDS011;27980;52.126;5.572;2023-08-30T00:47:00;7.60;;;5.50;;
18249;SDS011;27980;52.126;5.572;2023-08-30T00:49:27;5.43;;;4.47;;
18249;SDS011;27980;52.126;5.572;2023-08-30T00:51:54;7.65;;;5.15;;
18249;SDS011;27980;52.126;5.572;2023-08-30T00:54:21;7.95;;;5.57;;
18249;SDS011;27980;52.126;5.572;2023-08-30T00:56:47;7.25;;;4.97;;
18249;SDS011;27980;52.126;5.572;2023-08-30T00:59:15;10.73;;;5.97;;
18249;SDS011;27980;52.126;5.572;2023-08-30T01:01:42;7.65;;;5.72;;
18249;SDS011;27980;52.126;5.572;2023-08-30T01:04:10;6.88;;;4.82;;
18249;SDS011;27980;52.126;5.572;2023-08-30T01:06:37;8.43;;;5.80;;
18249;SDS011;27980;52.126;5.572;2023-08-30T01:09:03;8.10;;;5.18;;
18249;SDS011;27980;52.126;5.572;2023-08-30T01:11:32;7.10;;;5.55;;
18249;SDS011;27980;52.126;5.572;2023-08-30T01:14:03;8.10;;;5.78;;
18249;SDS011;27980;52.126;5.572;2023-08-30T01:16:30;8.82;;;5.53;;
18249;SDS011;27980;52.126;5.572;2023-08-30T01:18:57;8.13;;;5.85;;
18249;SDS011;27980;52.126;5.572;2023-08-30T01:21:30;8.95;;;5.78;;
18249;SDS011;27980;52.126;5.572;2023-08-30T01:23:59;8.20;;;5.57;;
18249;SDS011;27980;52.126;5.572;2023-08-30T01:26:26;7.75;;;5.85;;
18249;SDS011;27980;52.126;5.572;2023-08-30T01:28:56;7.10;;;5.30;;
18249;SDS011;27980;52.126;5.572;2023-08-30T01:31:27;6.13;;;5.18;;
18249;SDS011;27980;52.126;5.572;2023-08-30T01:33:54;7.72;;;5.40;;
18249;SDS011;27980;52.126;5.572;2023-08-30T01:36:22;9.20;;;6.20;;
18249;SDS011;27980;52.126;5.572;2023-08-30T01:38:48;8.45;;;5.80;;
18249;SDS011;27980;52.126;5.572;2023-08-30T01:41:15;8.50;;;5.78;;
18249;SDS011;27980;52.126;5.572;2023-08-30T01:43:43;12.27;;;6.68;;
18249;SDS011;27980;52.126;5.572;2023-08-30T01:46:11;10.25;;;6.10;;
18249;SDS011;27980;52.126;5.572;2023-08-30T01:48:37;9.13;;;6.05;;
18249;SDS011;27980;52.126;5.572;2023-08-30T01:51:04;10.02;;;6.05;;
18249;SDS011;27980;52.126;5.572;2023-08-30T01:53:31;8.82;;;6.03;;
18249;SDS011;27980;52.126;5.572;2023-08-30T01:55:58;7.13;;;5.55;;
18249;SDS011;27980;52.126;5.572;2023-08-30T01:58:24;8.95;;;6.22;;
18249;SDS011;27980;52.126;5.572;2023-08-30T02:00:53;7.40;;;6.20;;
18249;SDS011;27980;52.126;5.572;2023-08-30T02:03:22;7.97;;;6.30;;
18249;SDS011;27980;52.126;5.572;2023-08-30T02:05:52;8.65;;;6.03;;
18249;SDS011;27980;52.126;5.572;2023-08-30T02:08:24;7.55;;;6.00;;
18249;SDS011;27980;52.126;5.572;2023-08-30T02:10:55;8.27;;;6.57;;
18249;SDS011;27980;52.126;5.572;2023-08-30T02:13:25;11.93;;;6.13;;
18249;SDS011;27980;52.126;5.572;2023-08-30T02:15:52;6.55;;;5.38;;
18249;SDS011;27980;52.126;5.572;2023-08-30T02:18:18;9.38;;;6.22;;
18249;SDS011;27980;52.126;5.572;2023-08-30T02:20:47;10.10;;;6.43;;
18249;SDS011;27980;52.126;5.572;2023-08-30T02:23:13;8.50;;;6.13;;
18249;SDS011;27980;52.126;5.572;2023-08-30T02:25:40;9.57;;;6.03;;
18249;SDS011;27980;52.126;5.572;2023-08-30T02:28:06;10.68;;;6.07;;
18249;SDS011;27980;52.126;5.572;2023-08-30T02:30:33;9.60;;;6.63;;
18249;SDS011;27980;52.126;5.572;2023-08-30T02:32:59;7.93;;;6.10;;
18249;SDS011;27980;52.126;5.572;2023-08-30T02:35:26;7.90;;;6.05;;
18249;SDS011;27980;52.126;5.572;2023-08-30T02:37:53;9.10;;;6.03;;
18249;SDS011;27980;52.126;5.572;2023-08-30T02:40:20;10.23;;;6.45;;
18249;SDS011;27980;52.126;5.572;2023-08-30T02:42:46;10.50;;;6.55;;
18249;SDS011;27980;52.126;5.572;2023-08-30T02:45:13;11.57;;;6.40;;
18249;SDS011;27980;52.126;5.572;2023-08-30T02:47:39;8.80;;;6.55;;
18249;SDS011;27980;52.126;5.572;2023-08-30T02:50:06;9.15;;;7.00;;
18249;SDS011;27980;52.126;5.572;2023-08-30T02:52:32;8.90;;;6.20;;
18249;SDS011;27980;52.126;5.572;2023-08-30T02:55:00;11.15;;;7.32;;
18249;SDS011;27980;52.126;5.572;2023-08-30T02:57:26;9.57;;;5.90;;
18249;SDS011;27980;52.126;5.572;2023-08-30T02:59:53;8.70;;;6.07;;
18249;SDS011;27980;52.126;5.572;2023-08-30T03:02:19;10.70;;;6.93;;
18249;SDS011;27980;52.126;5.572;2023-08-30T03:04:46;11.15;;;6.72;;
18249;SDS011;27980;52.126;5.572;2023-08-30T03:07:12;12.32;;;6.28;;
18249;SDS011;27980;52.126;5.572;2023-08-30T03:09:39;10.02;;;6.93;;
18249;SDS011;27980;52.126;5.572;2023-08-30T03:12:07;9.23;;;6.68;;
18249;SDS011;27980;52.126;5.572;2023-08-30T03:14:33;9.85;;;6.93;;
18249;SDS011;27980;52.126;5.572;2023-08-30T03:17:00;8.45;;;6.60;;
18249;SDS011;27980;52.126;5.572;2023-08-30T03:19:26;10.23;;;6.47;;
18249;SDS011;27980;52.126;5.572;2023-08-30T03:21:53;10.48;;;7.68;;
18249;SDS011;27980;52.126;5.572;2023-08-30T03:24:19;11.63;;;7.45;;
18249;SDS011;27980;52.126;5.572;2023-08-30T03:26:45;11.25;;;7.00;;
18249;SDS011;27980;52.126;5.572;2023-08-30T03:29:15;9.43;;;6.80;;
18249;SDS011;27980;52.126;5.572;2023-08-30T03:31:41;10.98;;;6.82;;
18249;SDS011;27980;52.126;5.572;2023-08-30T03:34:08;11.10;;;7.57;;
18249;SDS011;27980;52.126;5.572;2023-08-30T03:36:34;10.63;;;6.97;;
18249;SDS011;27980;52.126;5.572;2023-08-30T03:39:01;10.45;;;6.88;;
18249;SDS011;27980;52.126;5.572;2023-08-30T03:41:28;11.35;;;7.68;;
18249;SDS011;27980;52.126;5.572;2023-08-30T03:43:54;10.15;;;6.28;;
18249;SDS011;27980;52.126;5.572;2023-08-30T03:46:22;10.75;;;7.40;;
18249;SDS011;27980;52.126;5.572;2023-08-30T03:48:49;10.07;;;6.55;;
18249;SDS011;27980;52.126;5.572;2023-08-30T03:51:15;9.55;;;6.32;;
18249;SDS011;27980;52.126;5.572;2023-08-30T03:53:42;11.18;;;6.82;;
18249;SDS011;27980;52.126;5.572;2023-08-30T03:56:08;9.85;;;7.10;;
18249;SDS011;27980;52.126;5.572;2023-08-30T03:58:34;11.98;;;7.20;;
18249;SDS011;27980;52.126;5.572;2023-08-30T04:01:02;11.25;;;7.45;;
18249;SDS011;27980;52.126;5.572;2023-08-30T04:03:33;10.98;;;6.78;;
18249;SDS011;27980;52.126;5.572;2023-08-30T04:06:00;11.55;;;7.05;;
18249;SDS011;27980;52.126;5.572;2023-08-30T04:08:27;12.63;;;8.10;;
18249;SDS011;27980;52.126;5.572;2023-08-30T04:10:54;10.85;;;7.70;;
18249;SDS011;27980;52.126;5.572;2023-08-30T04:13:21;15.55;;;8.55;;
18249;SDS011;27980;52.126;5.572;2023-08-30T04:15:47;9.80;;;7.20;;
18249;SDS011;27980;52.126;5.572;2023-08-30T04:18:14;10.88;;;6.63;;
18249;SDS011;27980;52.126;5.572;2023-08-30T04:20:44;10.80;;;7.20;;
18249;SDS011;27980;52.126;5.572;2023-08-30T04:23:12;11.90;;;7.30;;
18249;SDS011;27980;52.126;5.572;2023-08-30T04:25:38;11.77;;;7.20;;
18249;SDS011;27980;52.126;5.572;2023-08-30T04:28:06;11.98;;;7.40;;
18249;SDS011;27980;52.126;5.572;2023-08-30T04:30:35;14.50;;;8.10;;
18249;SDS011;27980;52.126;5.572;2023-08-30T04:33:02;12.63;;;7.53;;
18249;SDS011;27980;52.126;5.572;2023-08-30T04:35:29;11.23;;;6.70;;
18249;SDS011;27980;52.126;5.572;2023-08-30T04:37:57;15.20;;;8.23;;
18249;SDS011;27980;52.126;5.572;2023-08-30T04:40:23;12.35;;;7.47;;
18249;SDS011;27980;52.126;5.572;2023-08-30T04:42:50;11.35;;;6.97;;
18249;SDS011;27980;52.126;5.572;2023-08-30T04:45:16;12.07;;;7.55;;
18249;SDS011;27980;52.126;5.572;2023-08-30T04:47:43;13.93;;;7.13;;
18249;SDS011;27980;52.126;5.572;2023-08-30T04:50:12;11.93;;;6.93;;
18249;SDS011;27980;52.126;5.572;2023-08-30T04:52:41;13.60;;;7.65;;
18249;SDS011;27980;52.126;5.572;2023-08-30T04:55:10;12.27;;;7.53;;
18249;SDS011;27980;52.126;5.572;2023-08-30T04:57:37;12.00;;;7.18;;
18249;SDS011;27980;52.126;5.572;2023-08-30T05:00:04;12.57;;;6.97;;
18249;SDS011;27980;52.126;5.572;2023-08-30T05:02:31;11.60;;;6.75;;
18249;SDS011;27980;52.126;5.572;2023-08-30T05:04:57;10.65;;;6.95;;
18249;SDS011;27980;52.126;5.572;2023-08-30T05:07:24;13.85;;;7.28;;
18249;SDS011;27980;52.126;5.572;2023-08-30T05:09:50;11.20;;;6.82;;
18249;SDS011;27980;52.126;5.572;2023-08-30T05:12:22;10.52;;;6.97;;
18249;SDS011;27980;52.126;5.572;2023-08-30T05:14:51;9.05;;;6.53;;
18249;SDS011;27980;52.126;5.572;2023-08-30T05:17:17;10.68;;;6.90;;
18249;SDS011;27980;52.126;5.572;2023-08-30T05:19:43;10.38;;;7.13;;
18249;SDS011;27980;52.126;5.572;2023-08-30T05:22:10;12.00;;;6.63;;
18249;SDS011;27980;52.126;5.572;2023-08-30T05:24:38;13.43;;;7.13;;
18249;SDS011;27980;52.126;5.572;2023-08-30T05:27:04;11.50;;;6.93;;
18249;SDS011;27980;52.126;5.572;2023-08-30T05:29:33;10.40;;;6.95;;
18249;SDS011;27980;52.126;5.572;2023-08-30T05:32:00;12.25;;;7.25;;
18249;SDS011;27980;52.126;5.572;2023-08-30T05:34:27;13.00;;;7.15;;
18249;SDS011;27980;52.126;5.572;2023-08-30T05:36:53;11.30;;;6.80;;
18249;SDS011;27980;52.126;5.572;2023-08-30T05:39:20;11.75;;;7.03;;
18249;SDS011;27980;52.126;5.572;2023-08-30T05:41:46;10.32;;;7.30;;
18249;SDS011;27980;52.126;5.572;2023-08-30T05:44:13;13.00;;;7.00;;
18249;SDS011;27980;52.126;5.572;2023-08-30T05:46:41;11.13;;;7.55;;
18249;SDS011;27980;52.126;5.572;2023-08-30T05:49:11;12.35;;;7.15;;
18249;SDS011;27980;52.126;5.572;2023-08-30T05:51:38;12.10;;;7.07;;
18249;SDS011;27980;52.126;5.572;2023-08-30T05:54:04;11.98;;;7.20;;
18249;SDS011;27980;52.126;5.572;2023-08-30T05:56:31;13.98;;;7.22;;
18249;SDS011;27980;52.126;5.572;2023-08-30T05:58:57;16.77;;;7.70;;
18249;SDS011;27980;52.126;5.572;2023-08-30T06:01:24;12.35;;;7.65;;
18249;SDS011;27980;52.126;5.572;2023-08-30T06:03:52;10.98;;;7.15;;
18249;SDS011;27980;52.126;5.572;2023-08-30T06:06:19;12.23;;;7.00;;
18249;SDS011;27980;52.126;5.572;2023-08-30T06:08:47;10.70;;;6.78;;
18249;SDS011;27980;52.126;5.572;2023-08-30T06:11:14;11.40;;;7.63;;
18249;SDS011;27980;52.126;5.572;2023-08-30T06:13:41;12.88;;;7.03;;
18249;SDS011;27980;52.126;5.572;2023-08-30T06:16:07;10.23;;;6.40;;
18249;SDS011;27980;52.126;5.572;2023-08-30T06:18:34;11.27;;;7.15;;
18249;SDS011;27980;52.126;5.572;2023-08-30T06:21:01;11.35;;;6.50;;
18249;SDS011;27980;52.126;5.572;2023-08-30T06:23:29;11.55;;;7.13;;
18249;SDS011;27980;52.126;5.572;2023-08-30T06:25:55;12.07;;;6.97;;
18249;SDS011;27980;52.126;5.572;2023-08-30T06:28:22;11.05;;;7.07;;
18249;SDS011;27980;52.126;5.572;2023-08-30T06:30:48;8.18;;;6.20;;
18249;SDS011;27980;52.126;5.572;2023-08-30T06:33:16;12.48;;;6.72;;
18249;SDS011;27980;52.126;5.572;2023-08-30T06:35:47;10.18;;;6.55;;
18249;SDS011;27980;52.126;5.572;2023-08-30T06:38:17;11.27;;;7.28;;
18249;SDS011;27980;52.126;5.572;2023-08-30T06:40:44;10.48;;;6.50;;
18249;SDS011;27980;52.126;5.572;2023-08-30T06:43:10;11.57;;;6.68;;
18249;SDS011;27980;52.126;5.572;2023-08-30T06:45:37;10.95;;;6.97;;
18249;SDS011;27980;52.126;5.572;2023-08-30T06:48:04;8.88;;;6.65;;
18249;SDS011;27980;52.126;5.572;2023-08-30T06:50:31;10.50;;;6.93;;
18249;SDS011;27980;52.126;5.572;2023-08-30T06:52:58;11.73;;;6.68;;
18249;SDS011;27980;52.126;5.572;2023-08-30T06:55:26;11.70;;;6.82;;
18249;SDS011;27980;52.126;5.572;2023-08-30T06:57:52;12.30;;;7.03;;
18249;SDS011;27980;52.126;5.572;2023-08-30T07:00:19;10.50;;;6.65;;
18249;SDS011;27980;52.126;5.572;2023-08-30T07:02:45;12.15;;;7.35;;
18249;SDS011;27980;52.126;5.572;2023-08-30T07:05:12;15.43;;;7.50;;
18249;SDS011;27980;52.126;5.572;2023-08-30T07:07:38;11.10;;;6.80;;
18249;SDS011;27980;52.126;5.572;2023-08-30T07:10:05;9.50;;;6.63;;
18249;SDS011;27980;52.126;5.572;2023-08-30T07:12:33;12.00;;;7.25;;
18249;SDS011;27980;52.126;5.572;2023-08-30T07:15:00;9.30;;;6.63;;
18249;SDS011;27980;52.126;5.572;2023-08-30T07:17:28;11.00;;;6.72;;
18249;SDS011;27980;52.126;5.572;2023-08-30T07:19:54;15.50;;;7.55;;
18249;SDS011;27980;52.126;5.572;2023-08-30T07:22:21;9.80;;;6.50;;
18249;SDS011;27980;52.126;5.572;2023-08-30T07:24:47;10.82;;;6.95;;
18249;SDS011;27980;52.126;5.572;2023-08-30T07:27:14;10.73;;;7.00;;
18249;SDS011;27980;52.126;5.572;2023-08-30T07:29:42;8.75;;;6.28;;
18249;SDS011;27980;52.126;5.572;2023-08-30T07:32:08;11.13;;;7.32;;
18249;SDS011;27980;52.126;5.572;2023-08-30T07:34:37;13.40;;;7.68;;
18249;SDS011;27980;52.126;5.572;2023-08-30T07:37:04;10.63;;;7.78;;
18249;SDS011;27980;52.126;5.572;2023-08-30T07:39:31;11.27;;;7.38;;
18249;SDS011;27980;52.126;5.572;2023-08-30T07:41:57;12.50;;;7.65;;
18249;SDS011;27980;52.126;5.572;2023-08-30T07:44:23;12.80;;;6.88;;
18249;SDS011;27980;52.126;5.572;2023-08-30T07:46:52;12.55;;;7.65;;
18249;SDS011;27980;52.126;5.572;2023-08-30T07:49:18;14.40;;;8.02;;
18249;SDS011;27980;52.126;5.572;2023-08-30T07:51:45;10.98;;;7.18;;
18249;SDS011;27980;52.126;5.572;2023-08-30T07:54:11;10.52;;;7.35;;
18249;SDS011;27980;52.126;5.572;2023-08-30T07:56:38;12.25;;;8.05;;
18249;SDS011;27980;52.126;5.572;2023-08-30T07:59:04;10.60;;;8.07;;
18249;SDS011;27980;52.126;5.572;2023-08-30T08:01:30;12.13;;;8.50;;
18249;SDS011;27980;52.126;5.572;2023-08-30T08:03:58;15.52;;;8.43;;
18249;SDS011;27980;52.126;5.572;2023-08-30T08:06:25;13.40;;;7.90;;
18249;SDS011;27980;52.126;5.572;2023-08-30T08:08:51;14.07;;;7.82;;
18249;SDS011;27980;52.126;5.572;2023-08-30T08:11:17;10.90;;;8.00;;
18249;SDS011;27980;52.126;5.572;2023-08-30T08:13:44;11.05;;;8.18;;
18249;SDS011;27980;52.126;5.572;2023-08-30T08:16:11;10.32;;;7.60;;
18249;SDS011;27980;52.126;5.572;2023-08-30T08:18:37;9.68;;;7.28;;
18249;SDS011;27980;52.126;5.572;2023-08-30T08:21:05;11.38;;;6.95;;
18249;SDS011;27980;52.126;5.572;2023-08-30T08:23:31;10.15;;;7.22;;
18249;SDS011;27980;52.126;5.572;2023-08-30T08:25:58;11.57;;;6.70;;
18249;SDS011;27980;52.126;5.572;2023-08-30T08:28:25;12.98;;;7.95;;
18249;SDS011;27980;52.126;5.572;2023-08-30T08:30:52;9.27;;;6.70;;
18249;SDS011;27980;52.126;5.572;2023-08-30T08:33:18;10.48;;;6.70;;
18249;SDS011;27980;52.126;5.572;2023-08-30T08:35:47;11.40;;;6.50;;
18249;SDS011;27980;52.126;5.572;2023-08-30T08:38:15;10.57;;;6.18;;
18249;SDS011;27980;52.126;5.572;2023-08-30T08:40:42;10.13;;;6.55;;
18249;SDS011;27980;52.126;5.572;2023-08-30T08:43:09;12.07;;;6.43;;
18249;SDS011;27980;52.126;5.572;2023-08-30T08:45:36;9.55;;;6.97;;
18249;SDS011;27980;52.126;5.572;2023-08-30T08:48:03;13.70;;;6.63;;
18249;SDS011;27980;52.126;5.572;2023-08-30T08:50:30;9.77;;;6.18;;
18249;SDS011;27980;52.126;5.572;2023-08-30T08:52:57;9.30;;;6.35;;
18249;SDS011;27980;52.126;5.572;2023-08-30T08:55:27;9.13;;;6.90;;
18249;SDS011;27980;52.126;5.572;2023-08-30T08:57:55;8.13;;;6.25;;
18249;SDS011;27980;52.126;5.572;2023-08-30T09:00:22;10.93;;;6.07;;
18249;SDS011;27980;52.126;5.572;2023-08-30T09:02:48;7.40;;;5.93;;
18249;SDS011;27980;52.126;5.572;2023-08-30T09:05:17;9.95;;;6.38;;
18249;SDS011;27980;52.126;5.572;2023-08-30T09:07:46;9.75;;;6.47;;
18249;SDS011;27980;52.126;5.572;2023-08-30T09:10:13;11.15;;;6.25;;
18249;SDS011;27980;52.126;5.572;2023-08-30T09:12:41;7.82;;;5.72;;
18249;SDS011;27980;52.126;5.572;2023-08-30T09:15:08;9.52;;;5.95;;
18249;SDS011;27980;52.126;5.572;2023-08-30T09:17:35;8.27;;;5.78;;
18249;SDS011;27980;52.126;5.572;2023-08-30T09:20:05;10.88;;;6.55;;
18249;SDS011;27980;52.126;5.572;2023-08-30T09:22:35;8.25;;;6.07;;
18249;SDS011;27980;52.126;5.572;2023-08-30T09:25:02;13.70;;;6.80;;
18249;SDS011;27980;52.126;5.572;2023-08-30T09:27:31;9.68;;;6.30;;
18249;SDS011;27980;52.126;5.572;2023-08-30T09:29:59;8.25;;;5.80;;
18249;SDS011;27980;52.126;5.572;2023-08-30T09:32:26;7.80;;;6.03;;
18249;SDS011;27980;52.126;5.572;2023-08-30T09:34:53;8.70;;;6.18;;
18249;SDS011;27980;52.126;5.572;2023-08-30T09:37:20;13.90;;;6.45;;
18249;SDS011;27980;52.126;5.572;2023-08-30T09:39:48;11.98;;;6.30;;
18249;SDS011;27980;52.126;5.572;2023-08-30T09:42:15;11.05;;;6.53;;
18249;SDS011;27980;52.126;5.572;2023-08-30T09:44:44;8.10;;;6.18;;
18249;SDS011;27980;52.126;5.572;2023-08-30T09:47:12;9.85;;;6.55;;
18249;SDS011;27980;52.126;5.572;2023-08-30T09:49:42;10.13;;;6.45;;
18249;SDS011;27980;52.126;5.572;2023-08-30T09:52:09;11.10;;;6.45;;
18249;SDS011;27980;52.126;5.572;2023-08-30T09:54:36;10.68;;;6.95;;
18249;SDS011;27980;52.126;5.572;2023-08-30T09:57:06;9.45;;;6.10;;
18249;SDS011;27980;52.126;5.572;2023-08-30T09:59:33;10.70;;;6.60;;
18249;SDS011;27980;52.126;5.572;2023-08-30T10:02:03;11.68;;;7.47;;
18249;SDS011;27980;52.126;5.572;2023-08-30T10:04:32;10.15;;;7.00;;
18249;SDS011;27980;52.126;5.572;2023-08-30T10:06:58;10.55;;;6.68;;
18249;SDS011;27980;52.126;5.572;2023-08-30T10:09:25;12.25;;;7.32;;
18249;SDS011;27980;52.126;5.572;2023-08-30T10:11:52;7.72;;;6.28;;
18249;SDS011;27980;52.126;5.572;2023-08-30T10:14:19;9.90;;;7.03;;
18249;SDS011;27980;52.126;5.572;2023-08-30T10:16:46;10.63;;;7.40;;
18249;SDS011;27980;52.126;5.572;2023-08-30T10:19:14;10.70;;;7.82;;
18249;SDS011;27980;52.126;5.572;2023-08-30T10:21:44;11.68;;;7.50;;
18249;SDS011;27980;52.126;5.572;2023-08-30T10:24:11;11.82;;;7.55;;
18249;SDS011;27980;52.126;5.572;2023-08-30T10:26:38;10.63;;;7.57;;
18249;SDS011;27980;52.126;5.572;2023-08-30T10:29:06;10.43;;;7.15;;
18249;SDS011;27980;52.126;5.572;2023-08-30T10:31:34;10.38;;;7.88;;
18249;SDS011;27980;52.126;5.572;2023-08-30T10:34:01;10.27;;;7.45;;
18249;SDS011;27980;52.126;5.572;2023-08-30T10:36:27;9.00;;;6.97;;
18249;SDS011;27980;52.126;5.572;2023-08-30T10:38:55;11.80;;;7.72;;
18249;SDS011;27980;52.126;5.572;2023-08-30T10:41:22;9.20;;;7.05;;
18249;SDS011;27980;52.126;5.572;2023-08-30T10:43:49;10.07;;;8.02;;
18249;SDS011;27980;52.126;5.572;2023-08-30T10:46:16;14.05;;;8.80;;
18249;SDS011;27980;52.126;5.572;2023-08-30T10:48:45;10.27;;;8.57;;
18249;SDS011;27980;52.126;5.572;2023-08-30T10:51:19;10.07;;;8.30;;
18249;SDS011;27980;52.126;5.572;2023-08-30T10:53:56;8.75;;;7.43;;
18249;SDS011;27980;52.126;5.572;2023-08-30T10:56:26;7.82;;;7.03;;
18249;SDS011;27980;52.126;5.572;2023-08-30T10:58:53;6.07;;;5.45;;
18249;SDS011;27980;52.126;5.572;2023-08-30T11:01:19;5.10;;;4.05;;
18249;SDS011;27980;52.126;5.572;2023-08-30T11:03:47;3.80;;;3.13;;
18249;SDS011;27980;52.126;5.572;2023-08-30T11:06:13;3.78;;;3.15;;
18249;SDS011;27980;52.126;5.572;2023-08-30T11:08:43;4.20;;;3.10;;
18249;SDS011;27980;52.126;5.572;2023-08-30T11:11:11;4.75;;;3.47;;
18249;SDS011;27980;52.126;5.572;2023-08-30T11:13:39;2.67;;;2.47;;
18249;SDS011;27980;52.126;5.572;2023-08-30T11:16:06;2.65;;;2.33;;
18249;SDS011;27980;52.126;5.572;2023-08-30T11:18:36;3.38;;;2.40;;
18249;SDS011;27980;52.126;5.572;2023-08-30T11:21:03;4.50;;;2.50;;
18249;SDS011;27980;52.126;5.572;2023-08-30T11:23:30;3.90;;;2.22;;
18249;SDS011;27980;52.126;5.572;2023-08-30T11:25:56;2.72;;;2.10;;
18249;SDS011;27980;52.126;5.572;2023-08-30T11:28:25;2.47;;;2.22;;
18249;SDS011;27980;52.126;5.572;2023-08-30T11:30:54;5.25;;;2.30;;
18249;SDS011;27980;52.126;5.572;2023-08-30T11:33:21;3.70;;;2.20;;
18249;SDS011;27980;52.126;5.572;2023-08-30T11:35:48;3.03;;;1.60;;
18249;SDS011;27980;52.126;5.572;2023-08-30T11:38:15;8.88;;;1.92;;
18249;SDS011;27980;52.126;5.572;2023-08-30T11:40:41;2.35;;;1.60;;
18249;SDS011;27980;52.126;5.572;2023-08-30T11:43:08;3.20;;;1.52;;
18249;SDS011;27980;52.126;5.572;2023-08-30T11:45:37;4.53;;;1.98;;
18249;SDS011;27980;52.126;5.572;2023-08-30T11:48:04;3.33;;;1.80;;
18249;SDS011;27980;52.126;5.572;2023-08-30T11:50:31;3.17;;;1.85;;
18249;SDS011;27980;52.126;5.572;2023-08-30T11:52:58;5.85;;;2.28;;
18249;SDS011;27980;52.126;5.572;2023-08-30T11:55:24;6.40;;;2.20;;
18249;SDS011;27980;52.126;5.572;2023-08-30T11:57:51;4.57;;;1.80;;
18249;SDS011;27980;52.126;5.572;2023-08-30T12:00:18;3.15;;;1.60;;
18249;SDS011;27980;52.126;5.572;2023-08-30T12:02:46;7.05;;;2.10;;
18249;SDS011;27980;52.126;5.572;2023-08-30T12:05:13;2.05;;;1.30;;
18249;SDS011;27980;52.126;5.572;2023-08-30T12:07:40;2.38;;;1.60;;
18249;SDS011;27980;52.126;5.572;2023-08-30T12:10:07;4.63;;;1.80;;
18249;SDS011;27980;52.126;5.572;2023-08-30T12:12:34;3.65;;;1.88;;
18249;SDS011;27980;52.126;5.572;2023-08-30T12:15:02;2.08;;;1.27;;
18249;SDS011;27980;52.126;5.572;2023-08-30T12:17:34;3.10;;;1.70;;
18249;SDS011;27980;52.126;5.572;2023-08-30T12:20:02;3.95;;;1.65;;
18249;SDS011;27980;52.126;5.572;2023-08-30T12:22:37;3.88;;;1.60;;
18249;SDS011;27980;52.126;5.572;2023-08-30T12:25:04;5.63;;;1.67;;
18249;SDS011;27980;52.126;5.572;2023-08-30T12:27:41;2.65;;;1.52;;
18249;SDS011;27980;52.126;5.572;2023-08-30T12:30:08;9.60;;;2.15;;
18249;SDS011;27980;52.126;5.572;2023-08-30T12:32:34;2.75;;;1.40;;
18249;SDS011;27980;52.126;5.572;2023-08-30T12:35:02;4.03;;;1.35;;
18249;SDS011;27980;52.126;5.572;2023-08-30T12:37:30;4.60;;;1.67;;
18249;SDS011;27980;52.126;5.572;2023-08-30T12:39:56;2.13;;;1.30;;
18249;SDS011;27980;52.126;5.572;2023-08-30T12:42:23;4.78;;;1.60;;
18249;SDS011;27980;52.126;5.572;2023-08-30T12:44:49;4.80;;;1.50;;
18249;SDS011;27980;52.126;5.572;2023-08-30T12:47:16;3.15;;;1.30;;
18249;SDS011;27980;52.126;5.572;2023-08-30T12:49:42;4.57;;;1.40;;
18249;SDS011;27980;52.126;5.572;2023-08-30T12:52:10;5.10;;;1.67;;
18249;SDS011;27980;52.126;5.572;2023-08-30T12:54:37;10.80;;;1.88;;
18249;SDS011;27980;52.126;5.572;2023-08-30T12:57:04;3.70;;;1.38;;
18249;SDS011;27980;52.126;5.572;2023-08-30T12:59:30;3.97;;;1.40;;
18249;SDS011;27980;52.126;5.572;2023-08-30T13:01:57;4.45;;;1.20;;
18249;SDS011;27980;52.126;5.572;2023-08-30T13:04:23;2.50;;;1.20;;
18249;SDS011;27980;52.126;5.572;2023-08-30T13:06:50;6.25;;;1.33;;
18249;SDS011;27980;52.126;5.572;2023-08-30T13:09:18;3.33;;;1.17;;
18249;SDS011;27980;52.126;5.572;2023-08-30T13:11:45;5.38;;;1.80;;
18249;SDS011;27980;52.126;5.572;2023-08-30T13:14:11;5.18;;;1.50;;
18249;SDS011;27980;52.126;5.572;2023-08-30T13:16:38;2.88;;;0.80;;
18249;SDS011;27980;52.126;5.572;2023-08-30T13:19:04;2.15;;;0.70;;
18249;SDS011;27980;52.126;5.572;2023-08-30T13:21:31;1.35;;;0.80;;
18249;SDS011;27980;52.126;5.572;2023-08-30T13:23:58;3.53;;;1.35;;
18249;SDS011;27980;52.126;5.572;2023-08-30T13:26:26;2.00;;;1.15;;
18249;SDS011;27980;52.126;5.572;2023-08-30T13:28:52;3.55;;;1.08;;
18249;SDS011;27980;52.126;5.572;2023-08-30T13:31:18;3.55;;;1.38;;
18249;SDS011;27980;52.126;5.572;2023-08-30T13:33:45;3.55;;;1.20;;
18249;SDS011;27980;52.126;5.572;2023-08-30T13:36:12;4.55;;;1.02;;
18249;SDS011;27980;52.126;5.572;2023-08-30T13:38:38;2.92;;;1.20;;
18249;SDS011;27980;52.126;5.572;2023-08-30T13:41:05;5.75;;;1.55;;
18249;SDS011;27980;52.126;5.572;2023-08-30T13:43:33;4.25;;;1.13;;
18249;SDS011;27980;52.126;5.572;2023-08-30T13:46:00;3.47;;;1.05;;
18249;SDS011;27980;52.126;5.572;2023-08-30T13:48:26;3.28;;;1.45;;
18249;SDS011;27980;52.126;5.572;2023-08-30T13:50:53;3.15;;;1.30;;
18249;SDS011;27980;52.126;5.572;2023-08-30T13:53:19;5.05;;;1.20;;
18249;SDS011;27980;52.126;5.572;2023-08-30T13:55:46;3.35;;;1.30;;
18249;SDS011;27980;52.126;5.572;2023-08-30T13:58:13;4.40;;;1.30;;
18249;SDS011;27980;52.126;5.572;2023-08-30T14:00:42;3.92;;;1.10;;
18249;SDS011;27980;52.126;5.572;2023-08-30T14:03:08;3.97;;;1.30;;
18249;SDS011;27980;52.126;5.572;2023-08-30T14:05:35;3.28;;;1.00;;
18249;SDS011;27980;52.126;5.572;2023-08-30T14:08:05;4.85;;;1.10;;
18249;SDS011;27980;52.126;5.572;2023-08-30T14:10:32;7.07;;;1.02;;
18249;SDS011;27980;52.126;5.572;2023-08-30T14:12:58;4.40;;;1.08;;
18249;SDS011;27980;52.126;5.572;2023-08-30T14:15:25;2.75;;;1.02;;
18249;SDS011;27980;52.126;5.572;2023-08-30T14:17:53;2.67;;;1.50;;
18249;SDS011;27980;52.126;5.572;2023-08-30T14:20:20;4.10;;;1.27;;
18249;SDS011;27980;52.126;5.572;2023-08-30T14:22:47;4.13;;;1.00;;
18249;SDS011;27980;52.126;5.572;2023-08-30T14:25:14;2.75;;;1.30;;
18249;SDS011;27980;52.126;5.572;2023-08-30T14:27:40;2.70;;;1.10;;
18249;SDS011;27980;52.126;5.572;2023-08-30T14:30:07;2.13;;;1.00;;
18249;SDS011;27980;52.126;5.572;2023-08-30T14:32:34;1.13;;;0.75;;
18249;SDS011;27980;52.126;5.572;2023-08-30T14:35:03;3.15;;;0.93;;
18249;SDS011;27980;52.126;5.572;2023-08-30T14:37:30;1.23;;;0.60;;
18249;SDS011;27980;52.126;5.572;2023-08-30T14:39:56;2.00;;;1.00;;